Time;durP1;ratioP1;P1;durP2;ratioP2;P2;SDS_P1;SDS_P2;PMS_P1;PMS_P2;Temp;Humidity;BMP_temperature;BMP_pressure;BME280_temperature;BME280_humidity;BME280_pressure;Samples;Min_cycle;Max_cycle;Signal;HPM_P1;HPM_P2
2022/09/09 00:00:46;;;;;;;;;3.00;1.50;;;;;19.63;52.61;100377.75;5066360;28;45519;-53
2022/09/09 00:03:16;;;;;;;;;2.00;1.00;;;;;19.64;52.72;100378.63;5073983;27;45308;-50
2022/09/09 00:06:07;;;;;;;;;1.75;1.75;;;;;19.63;52.57;100376.94;5055538;28;45715;-53
2022/09/09 00:08:54;;;;;;;;;2.00;0.50;;;;;19.63;52.62;100379.56;5077424;27;45760;-53
2022/09/09 00:11:27;;;;;;;;;0.75;0.75;;;;;19.59;52.62;100375.44;5053948;28;45400;-52
2022/09/09 00:13:54;;;;;;;;;5.00;2.00;;;;;19.55;52.99;100369.50;5059006;28;45374;-52
2022/09/09 00:16:23;;;;;;;;;1.25;1.00;;;;;19.51;52.79;100366.22;5048300;27;47488;-50
2022/09/09 00:19:01;;;;;;;;;5.25;1.00;;;;;19.43;52.69;100362.41;5055150;28;45497;-50
2022/09/09 00:21:33;;;;;;;;;1.25;1.25;;;;;19.44;52.92;100370.28;5076057;27;45502;-49
2022/09/09 00:24:00;;;;;;;;;2.00;0.00;;;;;19.43;52.83;100368.56;5077790;27;45467;-51
2022/09/09 00:26:38;;;;;;;;;2.50;0.50;;;;;19.40;53.17;100359.97;5057006;28;45553;-50
2022/09/09 00:29:31;;;;;;;;;1.00;1.00;;;;;19.40;53.30;100371.41;5057542;27;45329;-50
2022/09/09 00:32:09;;;;;;;;;4.50;1.00;;;;;19.40;52.96;100367.94;5075048;27;45239;-51
2022/09/09 00:34:36;;;;;;;;;2.00;1.00;;;;;19.38;53.29;100370.69;5072091;27;45284;-54
2022/09/09 00:37:02;;;;;;;;;6.25;1.00;;;;;19.37;53.26;100373.44;5043745;28;45484;-53
2022/09/09 00:39:31;;;;;;;;;2.00;0.75;;;;;19.34;53.32;100374.50;5078477;27;45215;-49
2022/09/09 00:42:17;;;;;;;;;0.00;0.00;;;;;19.30;53.42;100370.34;5062006;28;45610;-51
2022/09/09 00:44:57;;;;;;;;;1.75;1.00;;;;;19.27;53.63;100368.78;5072754;27;45499;-54
2022/09/09 00:47:35;;;;;;;;;4.00;0.50;;;;;19.25;53.27;100364.53;5054748;27;48062;-52
2022/09/09 00:50:07;;;;;;;;;4.00;1.00;;;;;19.22;53.77;100360.28;5062104;28;45335;-53
2022/09/09 00:53:03;;;;;;;;;4.50;1.00;;;;;19.20;53.53;100358.72;5039207;28;45318;-53
2022/09/09 00:55:48;;;;;;;;;1.25;1.00;;;;;19.19;53.87;100360.50;5067753;27;45434;-52
2022/09/09 00:58:13;;;;;;;;;4.50;1.00;;;;;19.14;53.99;100355.53;5050446;28;46500;-53
2022/09/09 01:00:43;;;;;;;;;3.50;0.50;;;;;19.15;54.25;100359.84;5076156;27;45493;-51
2022/09/09 01:03:31;;;;;;;;;1.00;0.75;;;;;19.16;54.00;100352.78;5061868;28;45636;-51
2022/09/09 01:06:14;;;;;;;;;5.00;2.00;;;;;19.14;54.62;100352.00;5045350;28;45414;-50
2022/09/09 01:08:46;;;;;;;;;1.50;0.75;;;;;19.14;53.94;100352.88;5061993;27;45891;-50
2022/09/09 01:11:21;;;;;;;;;1.25;0.75;;;;;19.12;54.51;100348.59;5071907;28;45593;-53
2022/09/09 01:13:49;;;;;;;;;1.00;1.00;;;;;19.08;54.28;100358.59;5048267;28;45353;-53
2022/09/09 01:16:16;;;;;;;;;2.25;2.00;;;;;19.10;54.13;100358.47;5046962;28;46132;-52
2022/09/09 01:18:48;;;;;;;;;1.50;1.00;;;;;19.07;54.00;100348.06;5057177;28;45390;-53
2022/09/09 01:21:32;;;;;;;;;2.00;0.75;;;;;19.08;54.32;100347.97;5070505;27;45552;-53
2022/09/09 01:24:10;;;;;;;;;3.50;1.00;;;;;19.08;54.58;100347.97;5052938;28;45623;-50
2022/09/09 01:26:42;;;;;;;;;1.25;1.00;;;;;19.07;54.51;100345.41;5079731;27;45233;-55
2022/09/09 01:29:14;;;;;;;;;2.00;1.00;;;;;19.06;54.49;100351.69;5054869;28;47732;-53
2022/09/09 01:31:42;;;;;;;;;1.00;1.00;;;;;19.07;54.50;100343.63;5047597;28;45363;-55
2022/09/09 01:34:15;;;;;;;;;4.25;1.25;;;;;19.08;54.72;100344.47;5069118;28;45364;-53
2022/09/09 01:36:57;;;;;;;;;4.50;1.25;;;;;19.11;54.67;100342.47;5069359;28;45345;-55
2022/09/09 01:39:22;;;;;;;;;2.00;0.50;;;;;19.11;54.86;100345.13;5060217;27;46372;-55
2022/09/09 01:41:48;;;;;;;;;3.50;1.00;;;;;19.10;54.84;100347.88;5066920;27;45443;-55
2022/09/09 01:44:14;;;;;;;;;2.00;1.00;;;;;19.10;54.57;100353.19;5070185;27;55575;-51
2022/09/09 01:46:39;;;;;;;;;2.50;1.50;;;;;19.11;54.52;100368.16;5035675;27;45347;-52
2022/09/09 01:49:07;;;;;;;;;3.50;1.75;;;;;19.08;54.74;100360.38;5069981;27;48733;-53
2022/09/09 01:51:33;;;;;;;;;2.00;1.25;;;;;19.07;54.65;100363.97;5087137;27;45856;-51
2022/09/09 01:53:58;;;;;;;;;1.00;1.00;;;;;19.04;54.81;100359.75;5037754;28;45408;-53
2022/09/09 01:56:40;;;;;;;;;4.25;1.00;;;;;19.05;54.88;100356.16;5072371;27;59307;-51
2022/09/09 01:59:38;;;;;;;;;3.00;1.25;;;;;19.05;55.01;100352.63;5054606;27;46816;-52
2022/09/09 02:02:03;;;;;;;;;2.75;1.00;;;;;19.05;55.01;100349.97;5051243;28;45473;-51
2022/09/09 02:04:55;;;;;;;;;2.00;1.33;;;;;19.06;54.99;100357.00;5071386;27;45423;-54
2022/09/09 02:07:33;;;;;;;;;2.75;1.00;;;;;19.08;55.04;100353.28;5030886;28;45459;-54
2022/09/09 02:10:08;;;;;;;;;2.00;1.00;;;;;19.10;54.90;100351.34;5049743;28;46236;-53
2022/09/09 02:12:34;;;;;;;;;3.00;2.00;;;;;19.10;55.07;100342.56;5049196;27;45471;-52
2022/09/09 02:15:05;;;;;;;;;4.25;1.00;;;;;19.11;54.91;100337.16;5077715;28;65958;-54
2022/09/09 02:17:34;;;;;;;;;3.75;3.00;;;;;19.12;55.04;100343.31;5055884;28;45390;-53
2022/09/09 02:20:12;;;;;;;;;4.25;1.00;;;;;19.11;54.76;100341.63;5052694;28;45474;-52
2022/09/09 02:22:39;;;;;;;;;1.00;1.00;;;;;19.10;54.55;100337.25;5066787;27;45255;-51
2022/09/09 02:25:07;;;;;;;;;1.75;1.25;;;;;19.08;54.82;100336.53;5073133;28;45372;-54
2022/09/09 02:27:32;;;;;;;;;2.75;1.00;;;;;19.05;54.79;100326.13;5057842;28;45462;-53
2022/09/09 02:30:01;;;;;;;;;1.00;1.00;;;;;19.05;55.08;100328.78;5075402;27;73446;-49
2022/09/09 02:32:30;;;;;;;;;1.75;0.75;;;;;19.02;55.16;100323.69;5074047;27;45669;-51
2022/09/09 02:34:59;;;;;;;;;2.50;1.00;;;;;19.03;54.97;100322.72;5048176;27;45360;-52
2022/09/09 02:37:28;;;;;;;;;3.25;1.00;;;;;19.02;54.91;100326.34;5058191;27;45500;-49
2022/09/09 02:39:54;;;;;;;;;3.75;0.50;;;;;18.99;54.92;100314.13;5074366;27;45428;-53
2022/09/09 02:42:20;;;;;;;;;1.25;1.00;;;;;18.94;55.24;100322.41;5070246;27;45837;-53
2022/09/09 02:44:45;;;;;;;;;1.00;1.00;;;;;18.95;55.14;100326.75;5069386;27;45297;-51
2022/09/09 02:47:33;;;;;;;;;2.00;1.00;;;;;18.92;54.76;100324.31;5075555;27;45505;-51
2022/09/09 02:50:07;;;;;;;;;5.00;2.00;;;;;18.89;55.43;100316.59;5073129;27;45398;-52
2022/09/09 02:52:42;;;;;;;;;3.00;2.00;;;;;18.87;55.57;100320.28;5077547;27;45354;-54
2022/09/09 02:55:17;;;;;;;;;4.00;1.00;;;;;18.85;55.02;100312.44;5054040;28;45620;-49
2022/09/09 02:57:45;;;;;;;;;1.00;1.00;;;;;18.87;55.04;100315.81;5053788;27;45537;-50
2022/09/09 03:00:11;;;;;;;;;2.50;1.00;;;;;18.89;55.46;100324.53;5052600;28;45255;-51
2022/09/09 03:02:37;;;;;;;;;2.00;1.00;;;;;18.89;55.47;100316.59;5074784;27;45726;-54
2022/09/09 03:05:02;;;;;;;;;3.50;2.00;;;;;18.89;55.50;100315.72;5063858;27;45291;-53
2022/09/09 03:07:27;;;;;;;;;2.00;1.00;;;;;18.89;55.48;100316.59;5072794;27;45417;-51
2022/09/09 03:09:53;;;;;;;;;3.50;1.00;;;;;18.90;55.64;100322.72;5046500;28;75442;-52
2022/09/09 03:12:19;;;;;;;;;2.75;1.00;;;;;18.89;55.57;100324.53;5067630;27;45437;-54
2022/09/09 03:14:46;;;;;;;;;5.50;1.25;;;;;18.86;55.93;100314.13;5071094;27;45311;-53
2022/09/09 03:17:12;;;;;;;;;6.00;1.00;;;;;18.89;55.54;100316.59;5071801;27;45247;-53
2022/09/09 03:19:37;;;;;;;;;2.00;0.00;;;;;18.90;55.79;100320.06;5058088;27;46831;-52
2022/09/09 03:22:04;;;;;;;;;1.00;1.00;;;;;18.89;55.65;100321.03;5067745;27;45318;-54
2022/09/09 03:24:29;;;;;;;;;2.00;1.00;;;;;18.88;55.95;100320.19;5074619;27;45375;-54
2022/09/09 03:26:55;;;;;;;;;3.25;1.25;;;;;18.88;55.74;100314.88;5056185;28;45296;-52
2022/09/09 03:29:21;;;;;;;;;1.00;1.00;;;;;18.89;55.89;100313.94;5074319;27;45985;-49
2022/09/09 03:31:46;;;;;;;;;2.00;1.00;;;;;18.89;55.39;100323.66;5056300;28;45434;-52
2022/09/09 03:34:13;;;;;;;;;2.75;1.00;;;;;18.88;55.64;100325.47;5073713;27;59690;-52
2022/09/09 03:36:38;;;;;;;;;2.00;2.00;;;;;18.86;55.94;100327.41;5075077;27;45406;-51
2022/09/09 03:39:04;;;;;;;;;2.25;1.25;;;;;18.86;55.90;100322.09;5081000;27;45392;-49
2022/09/09 03:41:30;;;;;;;;;4.00;1.00;;;;;18.85;56.00;100322.19;5070974;27;49381;-49
2022/09/09 03:43:55;;;;;;;;;3.00;1.00;;;;;18.84;56.25;100323.13;5067650;27;45335;-49
2022/09/09 03:46:23;;;;;;;;;2.25;2.00;;;;;18.85;55.57;100325.69;5076842;27;64186;-48
2022/09/09 03:48:48;;;;;;;;;6.00;3.00;;;;;18.85;55.70;100315.06;5079444;27;45640;-51
2022/09/09 03:51:15;;;;;;;;;4.00;2.25;;;;;18.85;56.00;100312.44;5073415;28;45265;-52
2022/09/09 03:53:41;;;;;;;;;3.00;1.25;;;;;18.86;55.69;100315.94;5071123;27;45225;-50
2022/09/09 03:56:07;;;;;;;;;4.00;2.00;;;;;18.85;55.50;100325.69;5078683;27;45478;-52
2022/09/09 03:58:33;;;;;;;;;3.00;1.50;;;;;18.81;55.88;100325.97;5052799;28;62389;-50
2022/09/09 04:01:02;;;;;;;;;2.50;1.00;;;;;18.79;56.23;100315.47;5068619;27;45411;-53
2022/09/09 04:03:28;;;;;;;;;4.75;0.25;;;;;18.79;55.57;100323.44;5055484;28;45513;-52
2022/09/09 04:05:55;;;;;;;;;1.00;1.00;;;;;18.74;55.71;100322.91;5059060;28;45335;-53
2022/09/09 04:08:21;;;;;;;;;1.75;1.75;;;;;18.74;55.61;100314.94;5052631;27;48112;-54
2022/09/09 04:10:49;;;;;;;;;2.50;1.00;;;;;18.71;56.09;100312.50;5079773;27;45639;-52
2022/09/09 04:13:17;;;;;;;;;2.00;2.00;;;;;18.72;56.41;100320.34;5071133;27;45575;-55
2022/09/09 04:15:43;;;;;;;;;4.00;1.00;;;;;18.74;55.97;100312.28;5080336;27;45442;-52
2022/09/09 04:18:09;;;;;;;;;1.00;1.00;;;;;18.74;56.06;100310.47;5077430;27;45544;-54
2022/09/09 04:20:35;;;;;;;;;1.00;1.00;;;;;18.73;56.27;100311.44;5073993;27;45347;-50
2022/09/09 04:23:00;;;;;;;;;4.00;2.75;;;;;18.72;56.18;100304.44;5051630;27;45300;-54
2022/09/09 04:25:26;;;;;;;;;1.50;1.25;;;;;18.75;56.10;100313.97;5078776;27;45262;-52
2022/09/09 04:27:56;;;;;;;;;2.25;1.00;;;;;18.74;56.26;100317.59;5066765;28;47047;-53
2022/09/09 04:30:21;;;;;;;;;6.00;2.00;;;;;18.71;56.17;100310.69;5074990;27;45366;-52
2022/09/09 04:32:47;;;;;;;;;2.25;1.00;;;;;18.66;56.28;100310.16;5072078;27;45434;-52
2022/09/09 04:35:12;;;;;;;;;1.75;1.75;;;;;18.65;55.98;100308.47;5070878;27;45356;-53
2022/09/09 04:37:37;;;;;;;;;3.50;2.00;;;;;18.64;56.93;100309.41;5069089;27;63864;-53
2022/09/09 04:40:03;;;;;;;;;2.00;2.00;;;;;18.65;56.71;100313.75;5069773;27;49113;-54
2022/09/09 04:42:28;;;;;;;;;5.25;0.75;;;;;18.59;56.45;100320.34;5074110;27;45474;-54
2022/09/09 04:44:54;;;;;;;;;3.50;2.00;;;;;18.56;56.62;100309.94;5052828;28;48816;-54
2022/09/09 04:47:19;;;;;;;;;3.75;1.00;;;;;18.58;56.72;100317.78;5073583;27;46129;-54
2022/09/09 04:49:45;;;;;;;;;2.00;2.00;;;;;18.56;56.69;100317.88;5075870;27;45305;-54
2022/09/09 04:52:10;;;;;;;;;2.50;2.00;;;;;18.58;56.63;100315.13;5055554;27;62923;-51
2022/09/09 04:54:36;;;;;;;;;4.50;2.00;;;;;18.58;56.62;100320.44;5053557;27;45427;-52
2022/09/09 04:57:01;;;;;;;;;3.00;2.00;;;;;18.57;57.34;100324.88;5068362;27;61714;-54
2022/09/09 04:59:27;;;;;;;;;2.25;2.00;;;;;18.56;56.88;100317.88;5063567;28;45483;-53
2022/09/09 05:01:54;;;;;;;;;2.25;1.00;;;;;18.55;56.81;100324.13;5066792;28;62078;-54
2022/09/09 05:04:20;;;;;;;;;2.00;2.00;;;;;18.57;56.86;100322.25;5057450;28;45543;-54
2022/09/09 05:06:45;;;;;;;;;3.75;1.00;;;;;18.58;56.69;100331.03;5075009;27;45756;-53
2022/09/09 05:09:11;;;;;;;;;3.75;0.75;;;;;18.56;56.72;100325.81;5079570;27;45295;-54
2022/09/09 05:11:36;;;;;;;;;3.25;2.50;;;;;18.51;56.76;100322.63;5068867;28;45315;-53
2022/09/09 05:14:02;;;;;;;;;1.00;1.00;;;;;18.56;56.38;100338.25;5069359;27;45454;-51
2022/09/09 05:16:28;;;;;;;;;2.75;1.75;;;;;18.55;56.26;100333.88;5070614;27;46254;-50
2022/09/09 05:18:53;;;;;;;;;2.25;0.75;;;;;18.50;56.53;100338.63;5073328;27;45503;-51
2022/09/09 05:21:21;;;;;;;;;2.00;1.00;;;;;18.46;56.63;100339.78;5071949;27;67573;-50
2022/09/09 05:23:46;;;;;;;;;4.00;2.25;;;;;18.45;57.31;100344.25;5075809;27;45271;-52
2022/09/09 05:26:14;;;;;;;;;2.00;1.00;;;;;18.47;57.08;100352.94;5071640;28;46300;-52
2022/09/09 05:28:40;;;;;;;;;2.00;2.00;;;;;18.47;56.88;100349.44;5079219;28;45680;-49
2022/09/09 05:31:12;;;;;;;;;5.50;1.00;;;;;18.50;56.83;100346.56;5066623;28;45340;-53
2022/09/09 05:33:43;;;;;;;;;3.00;2.00;;;;;18.47;57.31;100345.00;5069909;28;45297;-52
2022/09/09 05:36:13;;;;;;;;;3.00;1.25;;;;;18.48;57.17;100343.19;5066575;27;46059;-54
2022/09/09 05:38:38;;;;;;;;;3.75;2.00;;;;;18.51;56.76;100343.00;5058453;28;45629;-53
2022/09/09 05:41:04;;;;;;;;;1.50;1.00;;;;;18.50;56.78;100342.16;5070774;27;45565;-53
2022/09/09 05:43:32;;;;;;;;;1.25;1.25;;;;;18.51;57.12;100343.00;5079461;27;45510;-50
2022/09/09 05:46:04;;;;;;;;;2.00;2.00;;;;;18.54;57.04;100348.09;5075160;27;45316;-50
2022/09/09 05:48:34;;;;;;;;;5.00;2.00;;;;;18.55;56.79;100344.47;5063154;27;45324;-54
2022/09/09 05:50:59;;;;;;;;;5.00;2.00;;;;;18.55;57.04;100340.00;5053866;28;45542;-54
2022/09/09 05:53:26;;;;;;;;;3.00;3.00;;;;;18.56;57.10;100340.88;5058703;28;45372;-51
2022/09/09 05:56:03;;;;;;;;;3.75;2.25;;;;;18.60;57.24;100337.06;5066794;28;45277;-51
2022/09/09 05:58:31;;;;;;;;;2.00;1.75;;;;;18.65;57.07;100336.78;5076838;27;45672;-49
2022/09/09 06:01:08;;;;;;;;;3.25;1.50;;;;;18.69;57.18;100341.75;5065237;28;45391;-53
2022/09/09 06:03:38;;;;;;;;;5.25;2.75;;;;;18.75;57.29;100344.00;5053895;28;45535;-53
2022/09/09 06:06:05;;;;;;;;;2.50;1.50;;;;;18.81;56.74;100336.59;5073171;27;45455;-53
2022/09/09 06:08:32;;;;;;;;;4.50;2.00;;;;;18.78;56.97;100334.97;5059291;27;45325;-54
2022/09/09 06:11:02;;;;;;;;;3.00;2.00;;;;;18.81;56.96;100344.53;5079464;27;45566;-52
2022/09/09 06:13:28;;;;;;;;;5.50;3.00;;;;;18.84;56.90;100339.03;5079040;28;45235;-50
2022/09/09 06:15:53;;;;;;;;;4.25;4.00;;;;;18.87;56.67;100341.50;5037809;27;46975;-52
2022/09/09 06:18:19;;;;;;;;;4.50;4.00;;;;;18.87;56.90;100350.28;5069354;28;66425;-53
2022/09/09 06:21:00;;;;;;;;;4.00;2.00;;;;;18.86;57.04;100350.41;5060062;27;45715;-51
2022/09/09 06:23:26;;;;;;;;;5.00;4.00;;;;;18.84;56.87;100349.66;5076241;27;45288;-53
2022/09/09 06:26:00;;;;;;;;;1.75;1.75;;;;;18.83;56.85;100350.63;5071021;28;45931;-51
2022/09/09 06:28:26;;;;;;;;;5.00;2.00;;;;;18.82;57.12;100341.78;5071512;27;45303;-54
2022/09/09 06:30:58;;;;;;;;;7.25;2.00;;;;;18.83;56.87;100348.81;5062078;27;65375;-50
2022/09/09 06:33:23;;;;;;;;;2.00;2.00;;;;;18.84;57.38;100347.88;5081373;27;45463;-54
2022/09/09 06:35:53;;;;;;;;;2.25;2.00;;;;;18.87;56.74;100357.41;5054666;28;46970;-52
2022/09/09 06:38:18;;;;;;;;;4.25;3.00;;;;;18.85;56.87;100352.19;5075826;28;45287;-54
2022/09/09 06:40:51;;;;;;;;;4.00;2.25;;;;;18.85;56.77;100346.91;5046604;28;45305;-54
2022/09/09 06:43:17;;;;;;;;;5.00;3.00;;;;;18.85;57.09;100340.75;5047579;28;45534;-56
2022/09/09 06:45:42;;;;;;;;;6.25;2.25;;;;;18.86;57.25;100350.41;5079124;28;46189;-50
2022/09/09 06:48:08;;;;;;;;;3.50;1.75;;;;;18.88;57.01;100345.84;5077790;27;66033;-52
2022/09/09 06:50:34;;;;;;;;;4.50;2.00;;;;;18.90;57.08;100344.78;5068007;27;45383;-52
2022/09/09 06:52:59;;;;;;;;;2.75;2.00;;;;;18.95;56.95;100339.19;5062723;28;45403;-53
2022/09/09 06:55:25;;;;;;;;;2.00;2.00;;;;;18.97;56.75;100343.41;5059866;27;65949;-51
2022/09/09 06:57:50;;;;;;;;;4.25;3.00;;;;;19.01;56.69;100338.75;5057383;28;54002;-54
2022/09/09 07:00:16;;;;;;;;;1.50;1.00;;;;;19.05;56.75;100345.56;5073823;28;45336;-53
2022/09/09 07:02:42;;;;;;;;;4.75;3.00;;;;;19.06;56.69;100346.41;5053518;28;45560;-55
2022/09/09 07:05:08;;;;;;;;;2.00;1.75;;;;;19.05;56.25;100350.84;5062700;28;45957;-52
2022/09/09 07:07:33;;;;;;;;;2.00;2.00;;;;;19.11;56.54;100354.88;5071849;27;45337;-55
2022/09/09 07:09:59;;;;;;;;;4.50;2.50;;;;;19.12;56.17;100354.78;5073609;27;45282;-53
2022/09/09 07:12:24;;;;;;;;;4.75;1.75;;;;;19.14;56.11;100360.81;5064179;27;52734;-54
2022/09/09 07:14:49;;;;;;;;;3.25;2.00;;;;;19.15;56.43;100365.16;5077173;28;74553;-49
2022/09/09 07:17:15;;;;;;;;;6.00;3.00;;;;;19.15;56.34;100366.97;5076881;28;45423;-51
2022/09/09 07:19:40;;;;;;;;;4.75;2.00;;;;;19.16;56.09;100361.56;5062997;28;59776;-49
2022/09/09 07:22:06;;;;;;;;;1.75;1.00;;;;;19.19;56.11;100360.50;5062994;28;45297;-51
2022/09/09 07:24:31;;;;;;;;;3.00;1.00;;;;;19.22;56.14;100357.63;5057937;28;47668;-49
2022/09/09 07:26:57;;;;;;;;;4.25;1.75;;;;;19.26;56.19;100372.38;5080269;28;62998;-51
2022/09/09 07:29:22;;;;;;;;;5.25;2.75;;;;;19.28;56.30;100365.19;5063721;28;45395;-53
2022/09/09 07:31:48;;;;;;;;;2.75;1.75;;;;;19.30;55.99;100365.91;5062693;28;45398;-50
2022/09/09 07:34:13;;;;;;;;;3.50;2.00;;;;;19.32;56.05;100373.78;5082144;28;45917;-51
2022/09/09 07:36:40;;;;;;;;;2.00;2.00;;;;;19.33;55.93;100383.41;5081264;28;45268;-54
2022/09/09 07:39:08;;;;;;;;;2.25;1.50;;;;;19.35;55.67;100381.50;5070925;28;45337;-52
2022/09/09 07:41:37;;;;;;;;;2.00;1.00;;;;;19.38;55.58;100383.94;5063182;28;45288;-52
2022/09/09 07:44:05;;;;;;;;;1.00;1.00;;;;;19.39;55.41;100383.00;5069874;27;46358;-52
2022/09/09 07:46:30;;;;;;;;;4.50;2.00;;;;;19.39;55.59;100382.13;5062895;28;45538;-51
2022/09/09 07:48:57;;;;;;;;;1.50;1.25;;;;;19.42;55.57;100381.94;5058935;28;52198;-51
2022/09/09 07:51:37;;;;;;;;;3.75;1.00;;;;;19.45;55.76;100377.25;5058973;28;45511;-51
2022/09/09 07:54:05;;;;;;;;;5.00;1.00;;;;;19.49;55.36;100384.03;5047560;28;47584;-50
2022/09/09 07:56:31;;;;;;;;;2.25;1.25;;;;;19.48;55.00;100386.81;5080948;28;45319;-52
2022/09/09 07:58:58;;;;;;;;;3.75;0.75;;;;;19.49;55.68;100383.19;5080126;28;45405;-54
2022/09/09 08:01:31;;;;;;;;;3.50;2.00;;;;;19.51;55.50;100387.47;5045364;28;45827;-53
2022/09/09 08:03:59;;;;;;;;;2.50;2.00;;;;;19.56;55.35;100391.59;5081304;28;45442;-49
2022/09/09 08:06:26;;;;;;;;;2.25;1.00;;;;;19.59;55.40;100389.56;5061624;28;45703;-53
2022/09/09 08:08:52;;;;;;;;;2.25;1.00;;;;;19.62;54.97;100399.97;5044303;28;45437;-51
2022/09/09 08:11:18;;;;;;;;;2.00;2.00;;;;;19.65;54.99;100398.91;5042924;28;45249;-54
2022/09/09 08:13:44;;;;;;;;;1.50;1.00;;;;;19.66;54.88;100397.94;5037730;28;47175;-54
2022/09/09 08:16:14;;;;;;;;;4.25;1.50;;;;;19.72;54.50;100408.13;5043506;28;45408;-53
2022/09/09 08:18:39;;;;;;;;;4.25;1.25;;;;;19.71;54.35;100401.13;5077865;28;45426;-53
2022/09/09 08:21:11;;;;;;;;;3.00;1.50;;;;;19.71;54.65;100407.28;5059193;28;45341;-53
2022/09/09 08:23:38;;;;;;;;;3.00;3.00;;;;;19.70;54.77;100410.88;5079388;27;45352;-53
2022/09/09 08:26:05;;;;;;;;;3.00;2.00;;;;;19.72;54.57;100402.81;5062765;28;45636;-52
2022/09/09 08:28:31;;;;;;;;;5.00;2.25;;;;;19.76;54.53;100400.81;5081020;28;45461;-54
2022/09/09 08:31:08;;;;;;;;;2.50;2.00;;;;;19.82;54.57;100401.25;5045898;28;45491;-54
2022/09/09 08:33:33;;;;;;;;;9.25;7.00;;;;;19.89;54.45;100394.53;5074661;28;46279;-53
2022/09/09 08:35:59;;;;;;;;;7.00;5.00;;;;;19.98;54.40;100408.13;5079979;28;66237;-52
2022/09/09 08:38:24;;;;;;;;;1.00;1.00;;;;;20.02;53.97;100402.47;5077707;28;45363;-54
2022/09/09 08:40:53;;;;;;;;;2.00;1.00;;;;;20.10;53.80;100410.75;5080056;28;45334;-52
2022/09/09 08:43:20;;;;;;;;;1.00;1.00;;;;;20.18;53.66;100407.50;5062318;28;46564;-52
2022/09/09 08:45:59;;;;;;;;;3.00;2.00;;;;;20.25;53.72;100416.75;5074541;28;66265;-53
2022/09/09 08:48:25;;;;;;;;;8.75;4.00;;;;;20.30;53.38;100411.94;5080991;27;45432;-54
2022/09/09 08:50:51;;;;;;;;;5.00;3.00;;;;;20.36;53.28;100410.66;5068262;28;45410;-53
2022/09/09 08:53:32;;;;;;;;;3.00;2.00;;;;;20.38;53.09;100427.34;5076474;28;46410;-50
2022/09/09 08:55:59;;;;;;;;;9.25;2.00;;;;;20.39;52.94;100429.03;5065031;27;45284;-54
2022/09/09 08:58:29;;;;;;;;;4.00;2.00;;;;;20.40;53.02;100416.59;5056644;28;45399;-53
2022/09/09 09:01:09;;;;;;;;;5.25;3.75;;;;;20.38;52.94;100427.34;5076543;27;45251;-54
2022/09/09 09:03:51;;;;;;;;;2.00;2.00;;;;;20.40;53.00;100429.88;5074420;27;45394;-57
2022/09/09 09:06:34;;;;;;;;;2.25;2.00;;;;;20.42;53.00;100427.97;5074499;28;45284;-53
2022/09/09 09:09:10;;;;;;;;;3.50;2.00;;;;;20.44;52.63;100444.66;5061155;28;45244;-53
2022/09/09 09:11:42;;;;;;;;;3.25;2.00;;;;;20.48;53.00;100438.13;5062867;28;45288;-54
2022/09/09 09:14:28;;;;;;;;;7.75;5.50;;;;;20.58;52.95;100449.78;5063447;27;47167;-53
2022/09/09 09:16:58;;;;;;;;;6.50;3.00;;;;;20.64;52.79;100449.34;5041748;28;45649;-53
2022/09/09 09:19:26;;;;;;;;;3.00;3.00;;;;;20.69;52.78;100453.50;5076234;28;45431;-54
2022/09/09 09:22:03;;;;;;;;;2.00;2.00;;;;;20.72;52.57;100454.13;5063876;27;45383;-56
2022/09/09 09:24:46;;;;;;;;;5.75;2.25;;;;;20.76;52.56;100460.91;5052059;28;47209;-51
2022/09/09 09:27:21;;;;;;;;;4.00;2.50;;;;;20.79;52.05;100446.56;5078375;28;45648;-54
2022/09/09 09:29:49;;;;;;;;;7.25;3.75;;;;;20.80;52.18;100453.53;5057931;27;45335;-53
2022/09/09 09:32:16;;;;;;;;;6.75;3.00;;;;;20.85;52.27;100467.34;5053030;28;45249;-54
2022/09/09 09:34:41;;;;;;;;;3.25;2.00;;;;;20.91;52.08;100458.06;5076737;27;45389;-52
2022/09/09 09:37:20;;;;;;;;;4.00;1.50;;;;;20.96;52.30;100463.88;5057551;28;45256;-52
2022/09/09 09:39:46;;;;;;;;;3.00;2.00;;;;;20.99;52.03;100456.53;5072520;27;45280;-54
2022/09/09 09:42:13;;;;;;;;;2.00;1.50;;;;;21.03;51.68;100459.81;5056572;28;45328;-53
2022/09/09 09:44:39;;;;;;;;;4.00;1.00;;;;;21.09;51.29;100472.66;5057538;28;46325;-54
2022/09/09 09:47:19;;;;;;;;;5.00;1.50;;;;;21.11;51.99;100475.22;5079270;27;45282;-54
2022/09/09 09:49:58;;;;;;;;;3.00;2.00;;;;;21.11;51.72;100476.03;5056559;28;45309;-53
2022/09/09 09:52:25;;;;;;;;;4.25;2.25;;;;;21.13;51.34;100479.44;5077418;27;45363;-52
2022/09/09 09:54:52;;;;;;;;;4.50;2.00;;;;;21.16;51.17;100473.88;5061270;28;45423;-52
2022/09/09 09:57:18;;;;;;;;;3.25;2.25;;;;;21.20;51.24;100472.69;5080053;28;45633;-54
2022/09/09 09:59:45;;;;;;;;;1.75;1.75;;;;;21.24;51.00;100474.13;5056051;28;45314;-53
2022/09/09 10:02:16;;;;;;;;;3.75;2.00;;;;;21.27;51.40;100477.56;5075877;28;73262;-52
2022/09/09 10:04:41;;;;;;;;;2.25;2.00;;;;;21.31;51.04;100479.00;5053397;28;46217;-55
2022/09/09 10:07:17;;;;;;;;;3.00;3.00;;;;;21.35;51.27;100469.81;5070837;27;68347;-54
2022/09/09 10:09:42;;;;;;;;;4.00;1.25;;;;;21.37;51.00;100476.75;5068311;28;45507;-53
2022/09/09 10:12:14;;;;;;;;;4.50;2.00;;;;;21.38;50.70;100494.38;5057803;28;73279;-54
2022/09/09 10:15:08;;;;;;;;;6.00;4.00;;;;;21.38;50.73;100490.88;5078546;28;45410;-53
2022/09/09 10:18:04;;;;;;;;;5.75;3.00;;;;;21.36;50.76;100501.66;5076124;28;45274;-51
2022/09/09 10:20:46;;;;;;;;;3.25;3.00;;;;;21.34;50.64;100489.44;5053850;27;45252;-55
2022/09/09 10:23:17;;;;;;;;;2.50;1.50;;;;;21.31;50.57;100485.16;5077176;27;45324;-53
2022/09/09 10:26:01;;;;;;;;;4.25;3.00;;;;;21.31;50.58;100487.84;5078905;28;45276;-54
2022/09/09 10:28:54;;;;;;;;;2.00;2.00;;;;;21.33;50.26;100491.22;5075743;27;45179;-50
2022/09/09 10:31:34;;;;;;;;;4.00;4.00;;;;;21.38;50.72;100494.38;5079062;28;45433;-51
2022/09/09 10:34:18;;;;;;;;;4.00;2.00;;;;;21.43;50.08;100489.56;5060150;28;45379;-53
2022/09/09 10:36:48;;;;;;;;;6.50;3.75;;;;;21.46;50.59;100493.84;5075381;28;45275;-50
2022/09/09 10:39:40;;;;;;;;;8.00;4.00;;;;;21.50;50.60;100497.13;5046579;28;45398;-49
2022/09/09 10:42:09;;;;;;;;;5.00;5.00;;;;;21.51;50.73;100493.47;5075039;28;45335;-52
2022/09/09 10:45:13;;;;;;;;;4.25;3.00;;;;;21.54;50.34;100496.75;5057912;28;46480;-53
2022/09/09 10:47:51;;;;;;;;;2.00;1.75;;;;;21.64;50.32;100488.91;5059580;28;45589;-55
2022/09/09 10:50:31;;;;;;;;;3.25;2.25;;;;;21.74;49.73;100483.72;5068691;28;45614;-51
2022/09/09 10:53:09;;;;;;;;;5.00;3.75;;;;;21.82;50.36;100486.63;5060205;28;45365;-51
2022/09/09 10:55:41;;;;;;;;;1.25;1.25;;;;;21.89;50.03;100487.84;5058222;28;45495;-50
2022/09/09 10:58:36;;;;;;;;;3.25;3.00;;;;;21.90;49.65;100488.69;5077037;28;45336;-53
2022/09/09 11:01:09;;;;;;;;;1.25;1.25;;;;;21.90;48.87;100488.69;5056371;28;45784;-55
2022/09/09 11:03:35;;;;;;;;;6.25;2.50;;;;;21.93;49.01;100472.47;5059099;28;45470;-52
2022/09/09 11:06:06;;;;;;;;;2.75;2.50;;;;;21.95;49.26;100475.84;5058902;28;73198;-54
2022/09/09 11:08:38;;;;;;;;;3.50;1.25;;;;;21.97;49.41;100479.22;5060316;28;45535;-52
2022/09/09 11:11:17;;;;;;;;;3.00;2.00;;;;;21.96;49.53;100485.56;5059559;28;45261;-52
2022/09/09 11:13:51;;;;;;;;;5.50;4.75;;;;;21.96;49.97;100480.22;5075380;28;45300;-59
2022/09/09 11:16:30;;;;;;;;;3.00;3.00;;;;;21.93;49.70;100478.63;5077336;27;45329;-57
2022/09/09 11:19:04;;;;;;;;;4.50;4.50;;;;;21.95;49.86;100483.84;5054445;28;46519;-55
2022/09/09 11:21:37;;;;;;;;;8.25;5.00;;;;;22.02;50.09;100487.72;5078399;28;45835;-55
2022/09/09 11:24:09;;;;;;;;;4.00;4.00;;;;;22.09;49.36;100470.25;5077455;28;45239;-54
2022/09/09 11:26:58;;;;;;;;;3.00;2.25;;;;;22.16;49.33;100484.78;5079384;27;45441;-53
2022/09/09 11:29:39;;;;;;;;;6.50;4.00;;;;;22.22;48.93;100482.63;5079073;27;45646;-53
2022/09/09 11:32:44;;;;;;;;;6.00;3.00;;;;;22.25;48.53;100471.72;5062527;28;45293;-56
2022/09/09 11:35:34;;;;;;;;;14.25;9.75;;;;;22.29;48.53;100474.06;5064587;27;45348;-56
2022/09/09 11:38:16;;;;;;;;;4.50;3.25;;;;;22.30;48.13;100489.06;5058026;28;45477;-53
2022/09/09 11:40:41;;;;;;;;;2.25;1.50;;;;;22.29;48.22;100483.84;5069410;28;46426;-52